createdAt,value
2019-05-29T00:02:12.340Z,93.00
2019-05-29T00:04:41.029Z,95.70
2019-05-29T00:07:10.141Z,92.90
2019-05-29T00:09:38.953Z,92.90
2019-05-29T00:12:10.688Z,92.90
2019-05-29T00:14:37.969Z,93.00
2019-05-29T00:17:06.687Z,93.00
2019-05-29T00:19:35.374Z,93.20
2019-05-29T00:22:04.151Z,93.00
2019-05-29T00:24:32.822Z,92.80
2019-05-29T00:27:01.494Z,92.90
2019-05-29T00:29:30.227Z,93.00
2019-05-29T00:31:58.982Z,92.90
2019-05-29T00:34:27.748Z,93.00
2019-05-29T00:36:56.429Z,93.00
2019-05-29T00:39:25.110Z,93.10
2019-05-29T00:42:14.345Z,93.10
2019-05-29T00:44:43.623Z,93.10
2019-05-29T00:47:12.299Z,96.00
2019-05-29T00:49:40.994Z,93.00
2019-05-29T00:52:10.021Z,93.10
2019-05-29T00:54:38.806Z,93.20
2019-05-29T00:57:08.690Z,93.20
2019-05-29T00:59:37.475Z,93.30
2019-05-29T01:02:06.153Z,93.30
2019-05-29T01:04:34.872Z,93.40
2019-05-29T01:07:03.552Z,93.60
2019-05-29T01:09:32.298Z,93.50
2019-05-29T01:12:00.995Z,93.70
2019-05-29T01:14:29.673Z,93.80
2019-05-29T01:16:58.387Z,93.70
2019-05-29T01:19:27.066Z,93.70
2019-05-29T01:21:58.778Z,93.80
2019-05-29T01:24:27.455Z,95.90
2019-05-29T01:26:56.130Z,93.70
2019-05-29T01:29:24.862Z,93.70
2019-05-29T01:31:53.547Z,93.60
2019-05-29T01:34:22.291Z,93.50
2019-05-29T01:36:50.984Z,93.70
2019-05-29T01:39:19.660Z,93.50
2019-05-29T01:41:48.373Z,93.50
2019-05-29T01:44:17.372Z,93.60
2019-05-29T01:46:46.418Z,93.50
2019-05-29T01:49:15.992Z,93.50
2019-05-29T01:51:44.906Z,93.40
2019-05-29T01:54:13.632Z,93.70
2019-05-29T01:56:42.314Z,96.90
2019-05-29T01:59:11.065Z,97.20
2019-05-29T02:01:39.747Z,93.30
2019-05-29T02:04:08.426Z,97.20
2019-05-29T02:06:37.148Z,93.00
2019-05-29T02:09:07.138Z,97.40
2019-05-29T02:11:35.900Z,93.10
2019-05-29T02:14:04.591Z,93.10
2019-05-29T02:16:33.358Z,93.40
2019-05-29T02:19:02.085Z,93.30
2019-05-29T02:21:30.772Z,93.20
2019-05-29T02:23:59.594Z,97.80
2019-05-29T02:26:28.328Z,93.30
2019-05-29T02:28:57.002Z,97.40
2019-05-29T02:31:28.212Z,93.20
2019-05-29T02:33:56.063Z,97.60
2019-05-29T02:36:26.670Z,93.20
2019-05-29T02:38:55.133Z,93.20
2019-05-29T02:41:25.701Z,97.40
2019-05-29T02:43:54.202Z,93.00
2019-05-29T02:46:23.929Z,96.90
2019-05-29T02:48:53.195Z,92.70
2019-05-29T02:51:22.137Z,92.50
2019-05-29T02:53:50.984Z,92.30
2019-05-29T02:56:20.684Z,92.30
2019-05-29T02:58:49.627Z,91.00
2019-05-29T03:01:18.294Z,95.00
2019-05-29T03:03:47.021Z,90.90
2019-05-29T03:06:15.695Z,91.10
2019-05-29T03:08:44.450Z,90.90
2019-05-29T03:11:13.126Z,90.80
2019-05-29T03:13:41.803Z,91.00
2019-05-29T03:16:12.712Z,90.90
2019-05-29T03:18:40.885Z,91.00
2019-05-29T03:21:09.562Z,91.20
2019-05-29T03:23:38.285Z,95.60
2019-05-29T03:26:07.076Z,91.80
2019-05-29T03:28:35.825Z,91.80
2019-05-29T03:31:04.509Z,91.90
2019-05-29T03:33:41.012Z,95.90
2019-05-29T03:36:03.605Z,91.90
2019-05-29T03:38:32.640Z,91.20
2019-05-29T03:41:02.016Z,90.30
2019-05-29T03:43:31.544Z,93.60
2019-05-29T03:46:01.012Z,87.80
2019-05-29T03:48:30.082Z,87.20
2019-05-29T03:50:59.217Z,93.40
2019-05-29T03:53:29.151Z,93.10
2019-05-29T03:55:58.073Z,93.00
2019-05-29T03:58:28.695Z,86.90
2019-05-29T04:00:57.144Z,93.10
2019-05-29T04:03:26.940Z,87.50
2019-05-29T04:05:55.807Z,86.70
2019-05-29T04:08:24.530Z,87.00
2019-05-29T04:10:53.213Z,86.80
2019-05-29T04:13:22.078Z,92.50
2019-05-29T04:15:50.871Z,86.00
2019-05-29T04:18:19.930Z,92.00
2019-05-29T04:20:48.789Z,85.70
2019-05-29T04:23:17.478Z,85.70
2019-05-29T04:25:46.228Z,91.50
2019-05-29T04:28:14.903Z,84.30
2019-05-29T04:30:43.585Z,84.40
2019-05-29T04:33:12.298Z,84.50
2019-05-29T04:35:40.982Z,83.60
2019-05-29T04:38:09.732Z,83.50
2019-05-29T04:40:39.612Z,84.70
2019-05-29T04:43:08.505Z,90.60
2019-05-29T04:45:39.232Z,82.20
2019-05-29T04:48:07.586Z,83.20
2019-05-29T04:50:38.185Z,82.00
2019-05-29T04:53:06.634Z,82.50
2019-05-29T04:55:35.311Z,83.00
2019-05-29T04:58:04.057Z,82.50
2019-05-29T05:00:33.118Z,82.00
2019-05-29T05:03:01.935Z,82.80
2019-05-29T05:05:31.169Z,82.50
2019-05-29T05:08:00.037Z,82.20
2019-05-29T05:10:34.140Z,81.30
2019-05-29T05:13:02.815Z,82.10
2019-05-29T05:15:33.663Z,82.00
2019-05-29T05:18:02.466Z,82.30
2019-05-29T05:20:31.951Z,82.60
2019-05-29T05:23:00.727Z,82.40
2019-05-29T05:25:30.028Z,81.90
2019-05-29T05:27:58.813Z,82.20
2019-05-29T05:30:27.554Z,81.90
2019-05-29T05:32:56.235Z,81.70
2019-05-29T05:35:24.901Z,81.60
2019-05-29T05:37:53.658Z,81.30
2019-05-29T05:40:22.407Z,80.80
2019-05-29T05:42:51.173Z,81.20
2019-05-29T05:45:19.843Z,80.20
2019-05-29T05:47:56.825Z,80.90
2019-05-29T05:50:18.867Z,81.60
2019-05-29T05:52:47.563Z,81.00
2019-05-29T05:55:16.705Z,80.00
2019-05-29T05:57:45.379Z,80.00
2019-05-29T06:00:14.076Z,80.90
2019-05-29T06:02:42.834Z,80.10
2019-05-29T06:05:11.498Z,80.10
2019-05-29T06:07:40.483Z,79.90
2019-05-29T06:10:09.395Z,79.20
2019-05-29T06:12:40.492Z,80.20
2019-05-29T06:15:09.431Z,79.70
2019-05-29T06:17:38.781Z,79.80
2019-05-29T06:20:10.462Z,80.10
2019-05-29T06:22:39.266Z,78.80
2019-05-29T06:25:07.961Z,79.00
2019-05-29T06:27:37.136Z,78.30
2019-05-29T06:30:07.368Z,79.10
2019-05-29T06:32:37.269Z,77.60
2019-05-29T06:35:07.106Z,76.70
2019-05-29T06:37:35.788Z,78.10
2019-05-29T06:40:05.666Z,79.10
2019-05-29T06:42:35.606Z,77.20
2019-05-29T06:45:06.262Z,78.00
2019-05-29T06:47:36.456Z,77.30
2019-05-29T06:50:05.950Z,75.70
2019-05-29T06:52:35.357Z,77.10
2019-05-29T06:55:04.230Z,74.90
2019-05-29T06:57:32.908Z,76.10
2019-05-29T07:00:01.649Z,76.20
2019-05-29T07:02:31.903Z,76.90
2019-05-29T07:05:00.801Z,75.20
2019-05-29T07:07:29.545Z,74.00
2019-05-29T07:09:58.216Z,75.80
2019-05-29T07:12:26.891Z,74.10
2019-05-29T07:14:55.599Z,73.60
2019-05-29T07:17:24.280Z,74.80
2019-05-29T07:20:02.783Z,74.20
2019-05-29T07:22:23.329Z,75.20
2019-05-29T07:24:52.022Z,74.20
2019-05-29T07:27:20.726Z,74.70
2019-05-29T07:29:49.392Z,74.50
2019-05-29T07:32:18.146Z,73.80
2019-05-29T07:34:57.873Z,73.40
2019-05-29T07:37:17.154Z,72.90
2019-05-29T07:39:45.861Z,73.60
2019-05-29T07:42:14.538Z,73.40
2019-05-29T07:44:44.041Z,72.10
2019-05-29T07:47:12.859Z,71.60
2019-05-29T07:49:44.448Z,71.00
2019-05-29T07:52:11.911Z,70.10
2019-05-29T07:54:41.627Z,71.70
2019-05-29T07:57:10.554Z,71.50
2019-05-29T07:59:40.296Z,71.50
2019-05-29T08:02:09.642Z,71.60
2019-05-29T08:04:38.910Z,71.70
2019-05-29T08:07:07.650Z,68.70
2019-05-29T08:09:36.351Z,67.00
2019-05-29T08:12:05.046Z,67.80
2019-05-29T08:14:33.722Z,66.90
2019-05-29T08:17:02.455Z,65.60
2019-05-29T08:19:31.732Z,64.70
2019-05-29T08:22:00.409Z,64.30
2019-05-29T08:24:29.130Z,64.60
2019-05-29T08:26:57.795Z,62.60
2019-05-29T08:29:26.544Z,62.90
2019-05-29T08:31:55.209Z,63.80
2019-05-29T08:34:23.896Z,62.80
2019-05-29T08:37:04.907Z,61.70
2019-05-29T08:39:35.140Z,61.60
2019-05-29T08:42:17.445Z,61.70
2019-05-29T08:44:23.680Z,61.40
2019-05-29T08:47:08.954Z,63.00
2019-05-29T08:49:22.756Z,63.60
2019-05-29T08:51:52.334Z,63.90
2019-05-29T08:54:24.163Z,61.80
2019-05-29T08:56:52.530Z,61.00
2019-05-29T08:59:21.331Z,60.40
2019-05-29T09:01:52.700Z,60.20
2019-05-29T09:04:20.429Z,60.40
2019-05-29T09:06:49.264Z,58.80
2019-05-29T09:09:18.075Z,60.60
2019-05-29T09:11:47.557Z,59.10
2019-05-29T09:14:16.433Z,59.50
2019-05-29T09:16:45.148Z,59.50
2019-05-29T09:19:14.185Z,59.60
2019-05-29T09:21:42.958Z,58.90
2019-05-29T09:24:14.599Z,58.40
2019-05-29T09:26:46.357Z,60.70
2019-05-29T09:29:16.802Z,58.40
2019-05-29T09:31:44.232Z,59.40
2019-05-29T09:34:13.879Z,58.40
2019-05-29T09:36:43.454Z,58.10
2019-05-29T09:39:12.119Z,57.80
2019-05-29T09:41:40.853Z,59.00
2019-05-29T09:44:09.540Z,60.30
2019-05-29T09:46:38.203Z,61.40
2019-05-29T09:49:06.920Z,59.60
2019-05-29T09:51:35.589Z,60.60
2019-05-29T09:54:04.430Z,58.90
2019-05-29T09:56:33.129Z,57.10
2019-05-29T09:59:02.445Z,57.60
2019-05-29T10:01:32.158Z,58.20
2019-05-29T10:04:03.442Z,57.80
2019-05-29T10:06:31.246Z,58.60
2019-05-29T10:09:00.111Z,59.80
2019-05-29T10:11:28.990Z,59.80
2019-05-29T10:13:58.834Z,59.70
2019-05-29T10:16:28.092Z,58.80
2019-05-29T10:18:58.483Z,57.80
2019-05-29T10:21:39.433Z,56.90
2019-05-29T10:23:57.975Z,56.50
2019-05-29T10:26:27.844Z,56.30
2019-05-29T10:29:07.987Z,57.20
2019-05-29T10:31:26.839Z,58.00
2019-05-29T10:33:55.545Z,57.00
2019-05-29T10:36:24.306Z,58.60
2019-05-29T10:38:53.173Z,57.00
2019-05-29T10:41:21.846Z,56.90
2019-05-29T10:43:51.345Z,57.30
2019-05-29T10:46:20.243Z,58.40
2019-05-29T10:48:52.244Z,58.90
2019-05-29T10:51:19.319Z,59.00
2019-05-29T10:53:50.401Z,57.60
2019-05-29T10:56:21.013Z,56.60
2019-05-29T10:58:54.411Z,56.30
2019-05-29T11:01:19.303Z,57.30
2019-05-29T11:03:49.233Z,58.60
2019-05-29T11:06:18.119Z,60.00
2019-05-29T11:08:47.988Z,58.10
2019-05-29T11:11:16.831Z,59.20
2019-05-29T11:13:46.701Z,57.40
2019-05-29T11:16:15.490Z,56.50
2019-05-29T11:18:44.198Z,55.00
2019-05-29T11:21:12.878Z,55.00
2019-05-29T11:23:41.631Z,55.70
2019-05-29T11:26:10.351Z,56.20
2019-05-29T11:28:39.022Z,55.90
2019-05-29T11:31:07.739Z,55.30
2019-05-29T11:33:36.407Z,57.50
2019-05-29T11:36:12.436Z,56.90
2019-05-29T11:38:35.667Z,56.20
2019-05-29T11:41:25.095Z,57.60
2019-05-29T11:43:34.795Z,55.90
2019-05-29T11:46:03.479Z,54.70
2019-05-29T11:48:32.158Z,55.60
2019-05-29T11:51:00.875Z,55.40
2019-05-29T11:53:29.551Z,55.50
2019-05-29T11:55:58.598Z,55.80
2019-05-29T11:58:31.459Z,55.30
2019-05-29T12:00:59.201Z,56.00
2019-05-29T12:03:28.137Z,55.00
2019-05-29T12:05:57.589Z,57.00
2019-05-29T12:08:26.450Z,55.30
2019-05-29T12:10:55.375Z,52.40
2019-05-29T12:13:24.098Z,52.30
2019-05-29T12:15:53.643Z,55.00
2019-05-29T12:18:24.137Z,53.90
2019-05-29T12:20:53.997Z,52.80
2019-05-29T12:23:26.507Z,52.00
2019-05-29T12:26:12.623Z,52.50
2019-05-29T12:28:23.575Z,53.80
2019-05-29T12:30:53.405Z,51.80
2019-05-29T12:33:22.654Z,50.40
2019-05-29T12:35:51.366Z,50.00
2019-05-29T12:38:20.053Z,53.20
2019-05-29T12:40:48.791Z,53.30
2019-05-29T12:43:26.391Z,51.70
2019-05-29T12:45:47.789Z,51.00
2019-05-29T12:48:16.894Z,50.80
2019-05-29T12:50:45.902Z,50.80
2019-05-29T12:53:28.772Z,51.30
2019-05-29T12:55:44.962Z,53.20
2019-05-29T12:58:13.639Z,51.40
2019-05-29T13:00:42.445Z,50.70
2019-05-29T13:03:11.098Z,49.00
2019-05-29T13:05:39.782Z,49.00
2019-05-29T13:08:08.493Z,46.80
2019-05-29T13:10:37.172Z,45.60
2019-05-29T13:13:10.599Z,45.60
2019-05-29T13:15:36.234Z,46.00
2019-05-29T13:18:09.520Z,45.40
2019-05-29T13:20:35.362Z,45.30
2019-05-29T13:23:05.429Z,45.20
2019-05-29T13:25:34.423Z,46.20
2019-05-29T13:28:04.356Z,45.90
2019-05-29T13:30:33.593Z,43.20
2019-05-29T13:33:04.719Z,41.00
2019-05-29T13:35:32.630Z,41.00
2019-05-29T13:38:01.441Z,39.60
2019-05-29T13:40:30.152Z,41.90
2019-05-29T13:43:04.458Z,44.20
2019-05-29T13:45:29.263Z,41.40
2019-05-29T13:47:59.123Z,35.50
2019-05-29T13:50:27.936Z,37.30
2019-05-29T13:52:57.144Z,41.00
2019-05-29T13:55:25.931Z,42.90
2019-05-29T13:57:54.654Z,45.40
2019-05-29T14:00:33.153Z,45.70
2019-05-29T14:02:53.682Z,41.80
2019-05-29T14:05:22.382Z,37.40
2019-05-29T14:07:51.057Z,33.40
2019-05-29T14:10:19.811Z,28.50
2019-05-29T14:12:48.490Z,28.40
2019-05-29T14:15:17.164Z,28.20
2019-05-29T14:17:45.923Z,28.10
2019-05-29T14:20:14.611Z,28.20
2019-05-29T14:22:43.294Z,30.40
2019-05-29T14:25:12.011Z,35.00
2019-05-29T14:27:40.695Z,38.60
2019-05-29T14:30:10.595Z,38.00
2019-05-29T14:32:39.723Z,35.80
2019-05-29T14:35:10.370Z,33.10
2019-05-29T14:37:38.797Z,32.40
2019-05-29T14:40:07.911Z,32.60
2019-05-29T14:42:36.830Z,30.20
2019-05-29T14:45:08.120Z,31.60
2019-05-29T14:47:37.021Z,34.30
2019-05-29T14:50:08.514Z,36.70
2019-05-29T14:52:37.587Z,40.40
2019-05-29T14:55:06.762Z,42.50
2019-05-29T14:57:35.601Z,41.20
2019-05-29T15:00:18.867Z,40.00
2019-05-29T15:02:38.751Z,40.40
2019-05-29T15:05:07.717Z,41.20
2019-05-29T15:07:36.706Z,41.50
2019-05-29T15:10:21.662Z,38.70
2019-05-29T15:12:38.979Z,37.10
2019-05-29T15:15:08.891Z,36.40
2019-05-29T15:17:37.765Z,35.20
2019-05-29T15:20:09.352Z,37.00
2019-05-29T15:22:38.128Z,38.90
2019-05-29T15:25:17.401Z,39.50
2019-05-29T15:27:37.674Z,40.00
2019-05-29T15:30:08.553Z,41.60
2019-05-29T15:32:37.488Z,42.20
2019-05-29T15:35:10.897Z,42.50
2019-05-29T15:37:37.402Z,41.70
2019-05-29T15:40:09.091Z,42.70
2019-05-29T15:42:37.799Z,42.70
2019-05-29T15:45:07.692Z,43.80
2019-05-29T15:47:36.543Z,44.40
2019-05-29T15:50:09.193Z,44.60
2019-05-29T15:52:38.058Z,45.20
2019-05-29T15:55:22.456Z,46.50
2019-05-29T15:57:37.532Z,46.20
2019-05-29T16:00:09.055Z,44.80
2019-05-29T16:02:37.847Z,44.60
2019-05-29T16:05:08.597Z,43.90
2019-05-29T16:07:37.560Z,44.80
2019-05-29T16:10:08.213Z,44.10
2019-05-29T16:12:37.039Z,45.00
2019-05-29T16:15:08.931Z,45.30
2019-05-29T16:17:37.834Z,45.00
2019-05-29T16:20:08.151Z,45.30
2019-05-29T16:22:36.822Z,44.40
2019-05-29T16:25:06.418Z,44.70
2019-05-29T16:27:35.176Z,44.90
2019-05-29T16:30:08.042Z,45.70
2019-05-29T16:32:36.736Z,45.70
2019-05-29T16:35:11.268Z,45.40
2019-05-29T16:37:39.944Z,46.00
2019-05-29T16:40:16.122Z,46.90
2019-05-29T16:42:45.087Z,48.10
2019-05-29T16:45:16.320Z,47.30
2019-05-29T16:47:45.273Z,47.60
2019-05-29T16:50:14.933Z,47.10
2019-05-29T16:52:44.002Z,47.70
2019-05-29T16:55:12.999Z,47.60
2019-05-29T16:57:41.801Z,48.40
2019-05-29T17:00:11.534Z,48.40
2019-05-29T17:02:40.334Z,48.20
2019-05-29T17:05:09.046Z,48.30
2019-05-29T17:07:37.769Z,49.90
2019-05-29T17:10:07.058Z,49.80
2019-05-29T17:12:35.828Z,50.30
2019-05-29T17:15:10.654Z,50.20
2019-05-29T17:17:39.433Z,49.70
2019-05-29T17:20:09.783Z,49.60
2019-05-29T17:22:38.457Z,49.20
2019-05-29T17:25:07.302Z,49.00
2019-05-29T17:27:36.024Z,49.00
2019-05-29T17:30:06.311Z,49.10
2019-05-29T17:32:35.244Z,48.90
2019-05-29T17:35:08.342Z,49.40
2019-05-29T17:37:37.478Z,49.50
2019-05-29T17:40:07.200Z,49.60
2019-05-29T17:42:35.893Z,49.90
2019-05-29T17:45:07.030Z,49.90
2019-05-29T17:47:35.895Z,50.40
2019-05-29T17:50:06.723Z,50.40
2019-05-29T17:52:35.532Z,50.50
2019-05-29T17:55:06.076Z,50.10
2019-05-29T17:57:34.954Z,50.20
2019-05-29T18:00:10.790Z,50.70
2019-05-29T18:02:51.429Z,51.00
2019-05-29T18:05:09.923Z,51.70
2019-05-29T18:07:38.637Z,51.40
2019-05-29T18:10:07.532Z,51.70
2019-05-29T18:12:36.223Z,51.90
2019-05-29T18:15:07.194Z,52.10
2019-05-29T18:17:35.973Z,51.90
2019-05-29T18:20:07.834Z,52.50
2019-05-29T18:22:36.554Z,52.20
2019-05-29T18:25:08.443Z,52.70
2019-05-29T18:27:37.134Z,53.00
2019-05-29T18:30:09.066Z,53.20
2019-05-29T18:32:37.857Z,53.60
2019-05-29T18:35:09.295Z,53.70
2019-05-29T18:37:38.034Z,54.00
2019-05-29T18:40:09.886Z,54.70
2019-05-29T18:42:37.172Z,54.40
2019-05-29T18:45:19.638Z,54.70
2019-05-29T18:47:37.632Z,54.90
2019-05-29T18:50:07.918Z,55.90
2019-05-29T18:52:36.602Z,55.60
2019-05-29T18:55:06.656Z,55.50
2019-05-29T18:57:35.387Z,56.00
2019-05-29T19:00:08.396Z,56.00
2019-05-29T19:02:37.147Z,56.60
2019-05-29T19:05:06.329Z,56.70
2019-05-29T19:07:35.016Z,57.10
2019-05-29T19:10:06.700Z,57.60
2019-05-29T19:12:35.923Z,57.60
2019-05-29T19:15:06.576Z,57.40
2019-05-29T19:17:35.308Z,57.60
2019-05-29T19:20:04.277Z,57.40
2019-05-29T19:22:33.157Z,57.50
2019-05-29T19:25:01.858Z,58.40
2019-05-29T19:27:39.189Z,58.60
2019-05-29T19:30:00.952Z,57.90
2019-05-29T19:32:29.629Z,57.90
2019-05-29T19:34:58.390Z,58.50
2019-05-29T19:37:27.915Z,58.60
2019-05-29T19:39:56.778Z,58.50
2019-05-29T19:42:26.141Z,58.80
2019-05-29T19:44:54.919Z,58.90
2019-05-29T19:47:24.568Z,59.20
2019-05-29T19:49:53.432Z,59.40
2019-05-29T19:52:22.131Z,59.70
2019-05-29T19:54:50.930Z,59.70
2019-05-29T19:57:19.643Z,60.00
2019-05-29T19:59:48.334Z,60.20
2019-05-29T20:02:17.057Z,60.70
2019-05-29T20:04:45.742Z,60.30
2019-05-29T20:07:14.492Z,60.60
2019-05-29T20:09:43.169Z,61.00
2019-05-29T20:12:11.850Z,60.90
2019-05-29T20:14:40.579Z,61.00
2019-05-29T20:17:09.254Z,61.00
2019-05-29T20:19:40.843Z,61.40
2019-05-29T20:22:08.342Z,61.70
2019-05-29T20:24:37.031Z,62.10
2019-05-29T20:27:05.750Z,61.90
2019-05-29T20:29:34.490Z,62.20
2019-05-29T20:32:03.182Z,62.20
2019-05-29T20:34:32.757Z,62.70
2019-05-29T20:37:01.621Z,63.10
2019-05-29T20:39:30.400Z,63.40
2019-05-29T20:41:59.079Z,63.30
2019-05-29T20:44:27.778Z,63.90
2019-05-29T20:46:56.492Z,63.70
2019-05-29T20:52:39.301Z,63.80
2019-05-29T20:55:08.502Z,64.10
2019-05-29T20:57:40.050Z,64.40
2019-05-29T21:00:14.827Z,64.40
2019-05-29T21:02:49.441Z,64.70
2019-05-29T21:05:18.203Z,65.30
2019-05-29T21:07:46.975Z,65.60
2019-05-29T21:10:15.658Z,65.80
2019-05-29T21:12:47.476Z,65.80
2019-05-29T21:15:14.751Z,65.80
2019-05-29T21:17:44.983Z,65.90
2019-05-29T21:20:13.759Z,66.00
2019-05-29T21:22:42.961Z,66.20
2019-05-29T21:25:17.147Z,66.40
2019-05-29T21:27:46.686Z,66.70
2019-05-29T21:30:12.925Z,66.90
2019-05-29T21:32:41.959Z,67.10
2019-05-29T21:35:10.747Z,67.50
2019-05-29T21:37:40.343Z,67.50
2019-05-29T21:40:09.301Z,67.90
2019-05-29T21:42:38.530Z,67.90
2019-05-29T21:45:07.481Z,67.80
2019-05-29T21:47:37.063Z,67.80
2019-05-29T21:50:06.902Z,67.90
2019-05-29T21:52:35.656Z,67.90
2019-05-29T21:55:05.764Z,68.10
2019-05-29T21:57:34.453Z,68.20
2019-05-29T22:00:03.174Z,68.30
2019-05-29T22:02:31.871Z,68.60
2019-05-29T22:05:00.681Z,68.60
2019-05-29T22:07:29.359Z,68.60
2019-05-29T22:09:58.732Z,69.30
2019-05-29T22:12:27.599Z,69.10
2019-05-29T22:14:56.854Z,69.50
2019-05-29T22:17:25.677Z,69.10
2019-05-29T22:19:54.916Z,69.10
2019-05-29T22:22:23.691Z,69.10
2019-05-29T22:24:53.097Z,68.60
2019-05-29T22:27:21.847Z,68.80
2019-05-29T22:29:51.932Z,68.80
2019-05-29T22:32:20.903Z,68.80
2019-05-29T22:34:49.582Z,69.30
2019-05-29T22:37:18.341Z,69.20
2019-05-29T22:39:47.025Z,69.50
2019-05-29T22:42:15.699Z,69.40
2019-05-29T22:44:44.416Z,69.40
2019-05-29T22:47:13.104Z,69.10
2019-05-29T22:49:41.861Z,69.30
2019-05-29T22:52:10.547Z,69.70
2019-05-29T22:54:39.267Z,69.70
2019-05-29T22:57:08.032Z,69.70
2019-05-29T22:59:36.712Z,69.90
2019-05-29T23:02:05.397Z,70.10
2019-05-29T23:04:34.107Z,70.60
2019-05-29T23:07:02.792Z,70.90
2019-05-29T23:09:31.529Z,70.50
2019-05-29T23:12:00.447Z,70.50
2019-05-29T23:14:29.184Z,70.60
2019-05-29T23:16:58.561Z,70.70
2019-05-29T23:19:27.405Z,71.20
2019-05-29T23:21:56.518Z,71.90
2019-05-29T23:24:25.279Z,71.10
2019-05-29T23:26:54.990Z,70.70
2019-05-29T23:29:23.719Z,71.20
2019-05-29T23:31:52.837Z,71.30
2019-05-29T23:34:21.747Z,71.20
2019-05-29T23:36:50.451Z,71.50
2019-05-29T23:39:19.106Z,71.40
2019-05-29T23:41:47.882Z,71.10
2019-05-29T23:44:16.645Z,71.70
2019-05-29T23:46:45.526Z,71.40
2019-05-29T23:49:14.235Z,72.10
2019-05-29T23:51:42.940Z,71.90
2019-05-29T23:54:11.747Z,71.70
2019-05-29T23:56:40.522Z,71.90
2019-05-29T23:59:09.213Z,72.10
